Time;durP1;ratioP1;P1;durP2;ratioP2;P2;SDS_P1;SDS_P2;PMS_P1;PMS_P2;Temp;Humidity;BMP_temperature;BMP_pressure;BME280_temperature;BME280_humidity;BME280_pressure;Samples;Min_cycle;Max_cycle;Signal;HPM_P1;HPM_P2
2022/07/30 00:00:47;;;;;;;3.10;2.72;;;;;;;28.46;45.34;100774.98;1750980;82;21111;-82
2022/07/30 00:03:13;;;;;;;3.25;2.67;;;;;;;28.46;45.35;100779.18;1751147;80;21069;-83
2022/07/30 00:05:40;;;;;;;2.98;2.55;;;;;;;28.47;45.34;100772.41;1751355;80;21587;-83
2022/07/30 00:08:06;;;;;;;2.72;2.45;;;;;;;28.46;45.36;100776.38;1751015;80;21576;-83
2022/07/30 00:10:33;;;;;;;3.10;2.80;;;;;;;28.46;45.38;100777.19;1730866;81;21094;-83
2022/07/30 00:12:59;;;;;;;3.00;2.70;;;;;;;28.46;45.38;100767.40;1716994;83;21068;-82
2022/07/30 00:15:26;;;;;;;2.70;2.50;;;;;;;28.47;45.38;100764.02;1708380;82;21036;-83
2022/07/30 00:17:52;;;;;;;3.33;2.90;;;;;;;28.45;45.40;100767.17;1701541;83;20959;-82
2022/07/30 00:20:19;;;;;;;3.17;2.85;;;;;;;28.45;45.43;100766.36;1701587;84;21032;-83
2022/07/30 00:22:45;;;;;;;3.00;2.62;;;;;;;28.44;45.46;100771.14;1701235;83;21562;-82
2022/07/30 00:25:12;;;;;;;3.05;2.75;;;;;;;28.45;45.45;100774.75;1701667;84;21603;-82
2022/07/30 00:27:38;;;;;;;2.83;2.47;;;;;;;28.45;45.48;100773.36;1701247;84;21052;-82
2022/07/30 00:30:13;;;;;;;2.85;2.45;;;;;;;28.44;45.49;100766.95;1701409;84;21055;-82
2022/07/30 00:32:40;;;;;;;3.27;2.77;;;;;;;28.45;45.48;100772.77;1701387;83;21545;-82
2022/07/30 00:35:08;;;;;;;3.42;2.65;;;;;;;28.44;45.50;100764.73;1701417;84;21060;-82
2022/07/30 00:37:35;;;;;;;2.90;2.60;;;;;;;28.44;45.49;100761.34;1701163;83;21172;-81
2022/07/30 00:40:02;;;;;;;3.05;2.65;;;;;;;28.44;45.52;100755.75;1701380;83;21034;-82
2022/07/30 00:42:40;;;;;;;2.90;2.60;;;;;;;28.45;45.53;100757.96;1701251;83;21078;-82
2022/07/30 00:45:07;;;;;;;2.65;2.45;;;;;;;28.45;45.55;100758.78;1700774;83;21044;-82
2022/07/30 00:47:34;;;;;;;2.90;2.50;;;;;;;28.44;45.53;100763.34;1702601;82;21092;-83
2022/07/30 00:50:03;;;;;;;2.77;2.50;;;;;;;28.44;45.54;100759.95;1702945;82;21121;-82
2022/07/30 00:52:33;;;;;;;3.33;2.52;;;;;;;28.44;45.58;100763.34;1702583;82;21135;-83
2022/07/30 00:54:59;;;;;;;3.05;2.72;;;;;;;28.44;45.59;100763.34;1702554;82;21571;-82
2022/07/30 00:57:27;;;;;;;3.65;2.70;;;;;;;28.43;45.60;100761.73;1702848;82;21067;-83
2022/07/30 00:59:53;;;;;;;3.67;3.27;;;;;;;28.44;45.59;100760.54;1702797;84;21104;-81
2022/07/30 01:02:20;;;;;;;2.87;2.60;;;;;;;28.43;45.61;100767.34;1702754;82;21108;-82
2022/07/30 01:04:46;;;;;;;2.83;2.47;;;;;;;28.43;45.65;100765.32;1702461;82;21064;-82
2022/07/30 01:07:13;;;;;;;2.70;2.47;;;;;;;28.43;45.65;100765.94;1702711;82;21476;-82
2022/07/30 01:09:39;;;;;;;3.62;2.55;;;;;;;28.43;45.65;100762.52;1703061;83;21546;-82
2022/07/30 01:12:07;;;;;;;2.60;2.22;;;;;;;28.43;45.68;100759.72;1703158;84;21071;-82
2022/07/30 01:14:34;;;;;;;2.77;2.58;;;;;;;28.43;45.67;100762.52;1702465;82;21381;-82
2022/07/30 01:17:00;;;;;;;2.87;2.60;;;;;;;28.43;45.67;100766.72;1705398;82;21084;-83
2022/07/30 01:19:49;;;;;;;2.85;2.45;;;;;;;28.42;45.68;100758.13;1705535;82;21139;-82
2022/07/30 01:22:40;;;;;;;3.00;2.70;;;;;;;28.44;45.69;100759.14;1743957;80;21080;-83
2022/07/30 01:25:13;;;;;;;;;;;;;;;28.42;45.66;100763.73;1759329;81;21567;-83
2022/07/30 01:28:07;;;;;;;2.92;2.65;;;;;;;28.41;45.70;100755.69;1756680;80;21170;-83
2022/07/30 01:30:37;;;;;;;3.50;2.65;;;;;;;28.39;45.67;100751.86;1756801;80;21068;-82
2022/07/30 01:33:04;;;;;;;3.15;2.60;;;;;;;28.39;45.68;100751.86;1756662;81;21096;-82
2022/07/30 01:35:31;;;;;;;3.22;2.40;;;;;;;28.39;45.68;100749.67;1756665;81;21075;-82
2022/07/30 01:37:59;;;;;;;3.30;2.60;;;;;;;28.38;45.72;100746.06;1756978;80;21582;-82
2022/07/30 01:40:26;;;;;;;2.85;2.50;;;;;;;28.38;45.72;100740.47;1756947;80;21094;-82
2022/07/30 01:42:53;;;;;;;4.33;2.27;;;;;;;28.39;45.75;100744.86;1757017;81;20988;-83
2022/07/30 01:45:22;;;;;;;3.10;2.80;;;;;;;28.40;45.75;100742.88;1757007;80;21020;-82
2022/07/30 01:47:50;;;;;;;2.75;2.45;;;;;;;28.39;45.77;100736.47;1756910;81;21582;-82
2022/07/30 01:50:17;;;;;;;3.00;2.70;;;;;;;28.39;45.79;100737.08;1757145;81;21080;-82
2022/07/30 01:52:44;;;;;;;2.95;2.70;;;;;;;28.38;45.77;100734.88;1757196;80;21109;-82
2022/07/30 01:55:14;;;;;;;2.85;2.52;;;;;;;28.39;45.79;100731.48;1756835;81;21028;-83
2022/07/30 01:57:40;;;;;;;3.15;2.70;;;;;;;28.39;45.80;100735.69;1738602;81;21015;-83
2022/07/30 02:00:08;;;;;;;3.22;2.72;;;;;;;28.39;45.80;100739.88;1758177;81;21026;-82
2022/07/30 02:02:35;;;;;;;3.67;2.52;;;;;;;28.39;45.82;100733.67;1758766;80;21592;-82
2022/07/30 02:05:02;;;;;;;3.85;2.50;;;;;;;28.39;45.82;100731.48;1729329;81;21083;-83
2022/07/30 02:07:49;;;;;;;3.27;2.60;;;;;;;28.40;45.82;100731.68;1759059;80;21023;-82
2022/07/30 02:10:20;;;;;;;2.58;2.33;;;;;;;28.39;45.81;100719.67;1758645;80;21117;-83
2022/07/30 02:12:51;;;;;;;3.52;2.47;;;;;;;28.39;45.82;100727.29;1758551;81;21038;-82
2022/07/30 02:15:25;;;;;;;3.55;2.27;;;;;;;28.39;45.82;100726.67;1757230;80;21043;-82
2022/07/30 02:18:17;;;;;;;3.37;2.60;;;;;;;28.38;45.82;100727.88;1722827;82;21157;-83
2022/07/30 02:20:47;;;;;;;3.22;2.65;;;;;;;28.39;45.83;100732.89;1750471;82;21034;-82
2022/07/30 02:23:14;;;;;;;3.05;2.40;;;;;;;28.39;45.81;100734.28;1751658;81;21038;-83
2022/07/30 02:25:45;;;;;;;4.20;2.70;;;;;;;28.38;45.83;100734.06;1751450;81;21106;-82
2022/07/30 02:28:13;;;;;;;3.30;2.52;;;;;;;28.38;45.83;100734.06;1751264;80;21539;-81
2022/07/30 02:30:47;;;;;;;2.60;2.40;;;;;;;28.37;45.88;100730.45;1751412;80;21145;-82
2022/07/30 02:33:13;;;;;;;2.77;2.47;;;;;;;28.37;45.85;100728.23;1751078;80;21237;-83
2022/07/30 02:35:40;;;;;;;4.15;2.70;;;;;;;28.37;45.89;100734.65;1751541;81;21537;-82
2022/07/30 02:38:06;;;;;;;3.08;2.58;;;;;;;28.37;45.88;100733.25;1751471;80;21062;-83
2022/07/30 02:40:33;;;;;;;3.05;2.75;;;;;;;28.38;45.89;100736.86;1751212;80;21057;-82
2022/07/30 02:42:59;;;;;;;3.45;2.60;;;;;;;28.37;45.90;100734.65;1751484;81;21019;-82
2022/07/30 02:45:26;;;;;;;2.80;2.52;;;;;;;28.37;45.89;100725.44;1751631;80;21019;-82
2022/07/30 02:47:57;;;;;;;2.90;2.47;;;;;;;28.38;45.87;100735.45;1751297;82;21715;-83
2022/07/30 02:50:24;;;;;;;3.40;2.70;;;;;;;28.38;45.93;100731.27;1750365;81;21086;-82
2022/07/30 02:52:50;;;;;;;2.83;2.52;;;;;;;28.38;45.90;100738.25;1722992;82;21018;-82
2022/07/30 02:55:17;;;;;;;2.98;2.67;;;;;;;28.38;45.90;100737.67;1751082;80;21545;-82
2022/07/30 02:57:43;;;;;;;2.75;2.50;;;;;;;28.37;45.94;100734.65;1751373;81;21051;-82
2022/07/30 03:00:11;;;;;;;2.80;2.50;;;;;;;28.37;45.90;100738.84;1751639;80;20999;-83
2022/07/30 03:02:38;;;;;;;3.98;3.05;;;;;;;28.38;45.94;100729.86;1751133;80;21051;-82
2022/07/30 03:05:06;;;;;;;2.62;2.42;;;;;;;28.37;45.93;100728.23;1751331;81;21086;-82
2022/07/30 03:07:33;;;;;;;2.98;2.45;;;;;;;28.37;45.95;100731.84;1751348;80;21079;-83
2022/07/30 03:10:00;;;;;;;2.72;2.10;;;;;;;28.37;45.95;100728.23;1731788;80;21577;-83
2022/07/30 03:12:28;;;;;;;2.50;2.30;;;;;;;28.36;45.96;100727.42;1722990;83;21580;-83
2022/07/30 03:14:55;;;;;;;3.02;2.70;;;;;;;28.37;45.96;100729.64;1723083;81;21401;-83
2022/07/30 03:17:22;;;;;;;3.40;2.77;;;;;;;28.37;46.00;100729.64;1726989;81;21040;-82
2022/07/30 03:19:48;;;;;;;3.65;2.50;;;;;;;28.36;45.98;100728.83;1697093;83;21508;-82
2022/07/30 03:22:14;;;;;;;3.00;2.72;;;;;;;28.37;45.95;100729.64;1696932;83;21057;-82
2022/07/30 03:24:41;;;;;;;3.00;2.40;;;;;;;28.36;45.97;100733.61;1727396;81;21089;-82
2022/07/30 03:27:07;;;;;;;3.10;2.80;;;;;;;28.36;45.96;100736.41;1721240;82;21054;-82
2022/07/30 03:29:34;;;;;;;2.67;2.47;;;;;;;28.36;46.00;100728.02;1727779;82;21077;-82
2022/07/30 03:32:01;;;;;;;3.33;2.70;;;;;;;28.36;46.02;100726.61;1727407;81;21110;-82
2022/07/30 03:34:28;;;;;;;3.58;2.80;;;;;;;28.35;46.02;100727.20;1727691;81;21113;-82
2022/07/30 03:36:54;;;;;;;2.65;2.40;;;;;;;28.36;46.01;100728.02;1727705;83;21108;-82
2022/07/30 03:39:21;;;;;;;2.67;2.47;;;;;;;28.36;46.01;100735.00;1727424;81;20993;-82
2022/07/30 03:41:53;;;;;;;3.87;2.60;;;;;;;28.36;46.02;100740.02;1727742;81;21508;-82
2022/07/30 03:44:21;;;;;;;2.90;2.47;;;;;;;28.34;46.02;100731.20;1727745;83;21531;-82
2022/07/30 03:46:49;;;;;;;2.62;2.35;;;;;;;28.36;46.01;100744.80;1727331;81;21495;-82
2022/07/30 03:49:15;;;;;;;3.12;2.62;;;;;;;28.35;46.02;100741.19;1727784;81;21041;-82
2022/07/30 03:51:42;;;;;;;3.77;2.50;;;;;;;28.36;45.98;100749.81;1727433;81;21074;-82
2022/07/30 03:54:10;;;;;;;3.17;2.83;;;;;;;28.35;46.00;100750.98;1727520;81;21587;-82
2022/07/30 03:56:37;;;;;;;3.25;2.70;;;;;;;28.36;45.98;100744.80;1721160;82;21168;-82
2022/07/30 03:59:03;;;;;;;4.10;2.42;;;;;;;28.35;46.01;100742.59;1727712;81;21033;-82
2022/07/30 04:01:30;;;;;;;3.62;2.40;;;;;;;28.36;46.00;100737.22;1696766;83;21028;-82
2022/07/30 04:04:09;;;;;;;3.08;2.77;;;;;;;28.36;46.02;100737.80;1727692;83;21065;-82
2022/07/30 04:06:41;;;;;;;2.75;2.42;;;;;;;28.36;46.03;100733.61;1727513;81;21041;-82
2022/07/30 04:09:09;;;;;;;3.15;2.77;;;;;;;28.35;46.03;100730.58;1727334;83;21155;-82
2022/07/30 04:11:36;;;;;;;3.92;2.58;;;;;;;28.35;46.05;100731.98;1727529;81;21081;-82
2022/07/30 04:14:02;;;;;;;3.75;2.75;;;;;;;28.33;46.05;100733.77;1727443;81;21077;-82
2022/07/30 04:16:54;;;;;;;2.92;2.33;;;;;;;28.35;46.05;100734.78;1724172;81;21097;-82
2022/07/30 04:19:30;;;;;;;3.05;2.45;;;;;;;28.35;46.08;100738.39;1719696;83;21713;-83
2022/07/30 04:21:57;;;;;;;3.00;2.50;;;;;;;28.33;46.06;100735.17;1719822;82;21053;-83
2022/07/30 04:24:25;;;;;;;3.87;2.60;;;;;;;28.34;46.08;100739.59;1719587;82;21041;-83
2022/07/30 04:26:52;;;;;;;3.52;2.92;;;;;;;28.33;46.05;100735.76;1719923;82;21493;-82
2022/07/30 04:29:18;;;;;;;2.70;2.50;;;;;;;28.33;46.06;100738.56;1701341;83;21110;-83
2022/07/30 04:31:44;;;;;;;4.60;2.65;;;;;;;28.33;46.08;100743.57;1719723;83;21099;-83
2022/07/30 04:34:14;;;;;;;3.62;2.60;;;;;;;28.34;46.07;100739.59;1719924;82;21138;-83
2022/07/30 04:36:41;;;;;;;2.57;2.37;;;;;;;28.35;46.08;100741.78;1720332;82;21051;-83
2022/07/30 04:39:07;;;;;;;3.02;2.72;;;;;;;28.34;46.06;100740.19;1719620;82;21354;-83
2022/07/30 04:41:34;;;;;;;3.15;2.75;;;;;;;28.34;46.08;100744.38;1720070;83;21077;-84
2022/07/30 04:44:00;;;;;;;2.98;2.60;;;;;;;28.35;46.08;100740.38;1719903;82;21109;-83
2022/07/30 04:46:33;;;;;;;2.77;2.02;;;;;;;28.34;46.08;100738.20;1719864;83;21137;-83
2022/07/30 04:48:59;;;;;;;3.17;2.67;;;;;;;28.35;46.08;100738.39;1719969;83;21515;-83
2022/07/30 04:51:32;;;;;;;2.77;2.52;;;;;;;28.35;46.09;100742.59;1719907;83;21556;-82
2022/07/30 04:53:58;;;;;;;2.98;2.67;;;;;;;28.35;46.07;100743.17;1719663;82;21093;-83
2022/07/30 04:56:25;;;;;;;2.70;2.50;;;;;;;28.35;46.07;100737.58;1719783;82;21108;-83
2022/07/30 04:58:51;;;;;;;3.20;2.80;;;;;;;28.36;46.07;100735.82;1719857;82;21603;-83
2022/07/30 05:01:26;;;;;;;4.20;2.65;;;;;;;28.36;46.05;100735.00;1719555;82;21441;-83
2022/07/30 05:03:52;;;;;;;3.10;2.75;;;;;;;28.36;46.05;100736.41;1720025;82;21026;-83
2022/07/30 05:06:20;;;;;;;3.35;2.47;;;;;;;28.36;46.07;100736.41;1719965;83;21069;-83
2022/07/30 05:08:46;;;;;;;3.47;2.50;;;;;;;28.36;46.07;100729.41;1719926;82;21460;-84
2022/07/30 05:11:13;;;;;;;3.70;2.92;;;;;;;28.36;46.07;100729.41;1720207;82;21990;-84
2022/07/30 05:13:42;;;;;;;6.00;2.83;;;;;;;28.37;46.08;100733.83;1720079;82;21085;-83
2022/07/30 05:16:08;;;;;;;3.33;2.37;;;;;;;28.38;46.07;100735.45;1720803;81;21117;-84
2022/07/30 05:18:35;;;;;;;3.10;2.80;;;;;;;28.37;46.06;100735.23;1728927;81;21073;-83
2022/07/30 05:21:01;;;;;;;2.60;2.40;;;;;;;28.38;46.06;100734.06;1728567;81;21048;-84
2022/07/30 05:23:28;;;;;;;2.58;2.37;;;;;;;28.38;46.05;100739.66;1727606;81;21074;-83
2022/07/30 05:25:54;;;;;;;2.90;2.52;;;;;;;28.38;46.06;100738.25;1727868;81;21100;-82
2022/07/30 05:28:21;;;;;;;4.17;2.80;;;;;;;28.38;46.05;100736.86;1727795;81;21083;-83
2022/07/30 05:30:48;;;;;;;3.10;2.80;;;;;;;28.38;46.08;100732.08;1727639;81;21149;-82
2022/07/30 05:33:14;;;;;;;4.05;2.80;;;;;;;28.39;46.05;100732.27;1727745;81;21552;-82
2022/07/30 05:35:41;;;;;;;3.15;2.65;;;;;;;28.39;46.05;100729.47;1727778;81;21878;-82
2022/07/30 05:38:13;;;;;;;2.87;2.52;;;;;;;28.40;46.04;100731.68;1727496;81;21025;-83
2022/07/30 05:40:39;;;;;;;2.58;2.37;;;;;;;28.40;46.06;100734.48;1727751;83;21468;-83
2022/07/30 05:43:06;;;;;;;2.75;2.47;;;;;;;28.40;46.06;100734.48;1727811;83;21061;-84
2022/07/30 05:45:32;;;;;;;2.87;2.55;;;;;;;28.40;46.07;100732.49;1727463;81;21100;-83
2022/07/30 05:47:59;;;;;;;3.27;2.42;;;;;;;28.40;46.09;100730.28;1727658;83;21511;-84
2022/07/30 05:50:31;;;;;;;2.90;2.60;;;;;;;28.41;46.08;100736.10;1727742;81;21021;-82
2022/07/30 05:52:58;;;;;;;3.22;2.50;;;;;;;28.41;46.07;100732.72;1727527;81;21012;-84
2022/07/30 05:55:24;;;;;;;2.85;2.25;;;;;;;28.41;46.08;100730.51;1727803;81;21144;-83
2022/07/30 05:57:54;;;;;;;3.67;2.72;;;;;;;28.42;46.11;100726.53;1727994;83;21357;-84
2022/07/30 06:00:20;;;;;;;3.22;2.92;;;;;;;28.42;46.15;100731.55;1727861;81;21816;-83
2022/07/30 06:02:47;;;;;;;3.05;2.70;;;;;;;28.42;46.13;100732.13;1727723;81;21048;-83
2022/07/30 06:05:13;;;;;;;3.10;2.80;;;;;;;28.44;46.17;100735.34;1727851;83;21081;-82
2022/07/30 06:07:40;;;;;;;3.47;2.92;;;;;;;28.43;46.21;100735.94;1727558;81;21117;-82
2022/07/30 06:10:07;;;;;;;3.15;2.55;;;;;;;28.44;46.18;100740.95;1727864;81;21151;-82
2022/07/30 06:12:33;;;;;;;2.85;2.55;;;;;;;28.44;46.21;100736.75;1727856;81;21060;-82
2022/07/30 06:15:00;;;;;;;3.15;2.52;;;;;;;28.44;46.21;100731.16;1727529;83;21529;-83
2022/07/30 06:17:26;;;;;;;2.90;2.55;;;;;;;28.45;46.22;100727.18;1696859;83;21151;-83
2022/07/30 06:19:53;;;;;;;2.92;2.62;;;;;;;28.44;46.21;100722.75;1727772;81;21117;-83
2022/07/30 06:22:19;;;;;;;2.58;2.37;;;;;;;28.45;46.22;100722.98;1727610;81;21077;-83
2022/07/30 06:24:45;;;;;;;3.00;2.45;;;;;;;28.46;46.22;100718.42;1727977;81;21180;-83
2022/07/30 06:27:18;;;;;;;3.30;2.62;;;;;;;28.45;46.22;100723.80;1696934;83;21501;-83
2022/07/30 06:29:44;;;;;;;3.67;2.90;;;;;;;28.45;46.22;100724.38;1727571;83;21033;-83
2022/07/30 06:32:11;;;;;;;3.85;2.95;;;;;;;28.45;46.22;100719.59;1727772;83;20953;-83
2022/07/30 06:34:37;;;;;;;3.05;2.83;;;;;;;28.46;46.23;100726.81;1727929;81;21112;-83
2022/07/30 06:37:04;;;;;;;3.15;2.80;;;;;;;28.46;46.23;100722.62;1727463;83;21198;-83
2022/07/30 06:39:30;;;;;;;5.20;3.00;;;;;;;28.47;46.25;100724.83;1727905;83;21120;-83
2022/07/30 06:41:57;;;;;;;2.58;2.37;;;;;;;28.46;46.26;100718.42;1727703;83;21638;-83
2022/07/30 06:44:23;;;;;;;3.15;2.40;;;;;;;28.47;46.26;100716.44;1727299;81;21132;-83
2022/07/30 06:46:50;;;;;;;3.67;2.75;;;;;;;28.47;46.27;100718.64;1727678;83;21469;-83
2022/07/30 06:49:16;;;;;;;3.08;2.77;;;;;;;28.47;46.29;100719.23;1727773;81;21139;-82
2022/07/30 06:51:44;;;;;;;4.05;2.80;;;;;;;28.47;46.27;100717.83;1727333;81;21128;-83
2022/07/30 06:54:11;;;;;;;2.90;2.58;;;;;;;28.47;46.27;100710.25;1727588;81;21085;-83
2022/07/30 06:56:37;;;;;;;3.12;2.67;;;;;;;28.48;46.31;100716.62;1727566;83;21048;-83
2022/07/30 06:59:04;;;;;;;3.22;2.40;;;;;;;28.48;46.29;100716.62;1727407;81;21123;-83
2022/07/30 07:01:31;;;;;;;3.65;2.60;;;;;;;28.48;46.29;100713.24;1727725;81;21129;-83
2022/07/30 07:03:57;;;;;;;4.50;3.05;;;;;;;28.47;46.28;100710.84;1727769;81;21002;-82
2022/07/30 07:06:23;;;;;;;3.50;3.02;;;;;;;28.48;46.28;100713.83;1727517;81;21142;-83
2022/07/30 07:08:50;;;;;;;3.22;2.92;;;;;;;28.49;46.28;100709.86;1727720;81;21057;-83
2022/07/30 07:11:16;;;;;;;3.17;2.87;;;;;;;28.48;46.31;100711.03;1727799;81;21559;-83
2022/07/30 07:13:49;;;;;;;2.98;2.70;;;;;;;28.47;46.31;100710.25;1727539;83;21488;-83
2022/07/30 07:16:15;;;;;;;3.30;2.83;;;;;;;28.48;46.31;100713.24;1727692;81;21104;-84
2022/07/30 07:18:42;;;;;;;4.17;2.60;;;;;;;28.49;46.27;100711.25;1720497;82;21014;-84
2022/07/30 07:21:08;;;;;;;3.02;2.72;;;;;;;28.48;46.27;100710.44;1719798;83;21038;-83
2022/07/30 07:23:35;;;;;;;4.40;2.70;;;;;;;28.49;46.28;100711.25;1719876;83;21089;-83
2022/07/30 07:26:02;;;;;;;3.47;2.72;;;;;;;28.50;46.29;100712.88;1720157;82;21958;-83
2022/07/30 07:28:29;;;;;;;3.10;2.72;;;;;;;28.49;46.29;100702.86;1719639;82;21026;-83
2022/07/30 07:30:55;;;;;;;3.77;2.70;;;;;;;28.49;46.33;100694.46;1720107;82;21066;-82
2022/07/30 07:33:22;;;;;;;3.45;2.90;;;;;;;28.49;46.35;100697.27;1720071;83;21057;-83
2022/07/30 07:35:48;;;;;;;2.75;2.52;;;;;;;28.48;46.37;100689.45;1719608;83;21050;-83
2022/07/30 07:38:15;;;;;;;2.92;2.60;;;;;;;28.49;46.35;100691.08;1720038;83;21160;-83
2022/07/30 07:40:41;;;;;;;3.52;2.95;;;;;;;28.49;46.38;100694.46;1720041;83;21547;-83
2022/07/30 07:43:08;;;;;;;3.40;3.10;;;;;;;28.49;46.38;100691.08;1719676;83;20993;-83
2022/07/30 07:45:34;;;;;;;2.90;2.60;;;;;;;28.50;46.37;100686.29;1720037;82;21077;-83
2022/07/30 07:48:01;;;;;;;3.50;3.05;;;;;;;28.51;46.34;100683.72;1720018;82;21057;-83
2022/07/30 07:50:27;;;;;;;3.22;2.67;;;;;;;28.51;46.34;100687.91;1719898;82;21202;-83
2022/07/30 07:52:54;;;;;;;3.12;2.83;;;;;;;28.51;46.36;100685.12;1719864;82;21022;-83
2022/07/30 07:55:21;;;;;;;5.50;2.95;;;;;;;28.51;46.37;100689.31;1719940;82;21595;-84
2022/07/30 07:57:48;;;;;;;3.90;2.80;;;;;;;28.51;46.38;100685.12;1719501;82;21108;-83
2022/07/30 08:00:19;;;;;;;4.03;2.85;;;;;;;28.51;46.40;100690.12;1720030;82;21065;-83
2022/07/30 08:02:46;;;;;;;3.10;2.60;;;;;;;28.51;46.39;100687.33;1719811;82;21085;-83
2022/07/30 08:05:13;;;;;;;3.22;2.92;;;;;;;28.51;46.42;100688.73;1719666;83;21050;-83
2022/07/30 08:07:39;;;;;;;3.67;3.10;;;;;;;28.51;46.42;100688.73;1720042;82;21544;-83
2022/07/30 08:10:06;;;;;;;3.20;2.90;;;;;;;28.53;46.41;100689.73;1719935;82;21093;-83
2022/07/30 08:12:33;;;;;;;2.75;2.50;;;;;;;28.52;46.43;100684.72;1719832;83;21120;-83
2022/07/30 08:14:59;;;;;;;2.62;2.40;;;;;;;28.52;46.42;100684.72;1720028;82;21495;-83
2022/07/30 08:17:26;;;;;;;3.58;2.80;;;;;;;28.52;46.41;100686.12;1720686;82;21101;-83
2022/07/30 08:19:53;;;;;;;3.00;2.70;;;;;;;28.53;46.41;100684.13;1722812;83;21031;-83
2022/07/30 08:22:19;;;;;;;3.05;2.75;;;;;;;28.53;46.41;100683.55;1722583;83;21040;-83
2022/07/30 08:24:45;;;;;;;2.92;2.72;;;;;;;28.54;46.41;100682.95;1722915;83;21058;-82
2022/07/30 08:27:12;;;;;;;4.03;2.70;;;;;;;28.54;46.38;100680.16;1722874;83;22223;-83
2022/07/30 08:29:38;;;;;;;3.75;2.60;;;;;;;28.54;46.36;100682.95;1723049;83;21062;-83
2022/07/30 08:32:05;;;;;;;3.10;2.80;;;;;;;28.54;46.36;100682.95;1723036;83;21086;-83
2022/07/30 08:34:32;;;;;;;3.22;2.65;;;;;;;28.53;46.33;100680.75;1722882;83;21004;-82
2022/07/30 08:36:58;;;;;;;4.10;2.52;;;;;;;28.54;46.33;100680.97;1722261;83;21070;-83
2022/07/30 08:39:25;;;;;;;4.10;2.58;;;;;;;28.55;46.34;100678.98;1721516;83;21036;-83
2022/07/30 08:41:51;;;;;;;4.62;2.85;;;;;;;28.55;46.34;100684.58;1721115;83;20987;-82
2022/07/30 08:44:18;;;;;;;3.47;2.60;;;;;;;28.55;46.34;100670.59;1721055;83;21110;-83
2022/07/30 08:46:45;;;;;;;4.60;2.80;;;;;;;28.55;46.35;100677.00;1721318;83;21067;-83
2022/07/30 08:49:12;;;;;;;3.67;2.65;;;;;;;28.55;46.37;100675.59;1720840;83;21118;-83
2022/07/30 08:51:38;;;;;;;3.10;2.80;;;;;;;28.56;46.38;100674.98;1721305;83;21765;-82
2022/07/30 08:54:05;;;;;;;3.12;2.83;;;;;;;28.55;46.42;100665.80;1720898;82;21148;-83
2022/07/30 08:56:32;;;;;;;4.15;2.83;;;;;;;28.55;46.41;100668.59;1721134;83;21051;-84
2022/07/30 08:59:01;;;;;;;3.17;2.67;;;;;;;28.55;46.42;100661.60;1720778;83;21004;-83
2022/07/30 09:01:28;;;;;;;4.45;2.92;;;;;;;28.55;46.42;100656.00;1721424;83;21063;-83
2022/07/30 09:03:54;;;;;;;5.33;2.72;;;;;;;28.55;46.43;100657.41;1720677;83;21308;-83
2022/07/30 09:06:21;;;;;;;3.27;2.98;;;;;;;28.55;46.48;100658.80;1720885;83;21177;-83
2022/07/30 09:08:47;;;;;;;7.47;2.60;;;;;;;28.56;46.48;100650.59;1720913;83;20944;-84
2022/07/30 09:11:13;;;;;;;4.50;2.58;;;;;;;28.56;46.46;100648.39;1720818;83;21079;-83
2022/07/30 09:13:41;;;;;;;5.00;2.90;;;;;;;28.56;46.48;100631.00;1720955;83;21106;-84
2022/07/30 09:16:09;;;;;;;3.00;2.47;;;;;;;28.56;46.47;100630.20;1721241;83;21894;-83
2022/07/30 09:18:40;;;;;;;3.67;2.75;;;;;;;28.56;46.49;100632.41;1701831;81;21135;-84
2022/07/30 09:21:28;;;;;;;3.25;2.95;;;;;;;28.56;46.49;100625.99;1728383;81;21120;-83
2022/07/30 09:24:10;;;;;;;2.83;2.50;;;;;;;28.56;46.49;100628.80;1724302;81;21033;-83
2022/07/30 09:26:57;;;;;;;3.80;2.65;;;;;;;28.56;46.47;100624.00;1721490;81;21575;-83
2022/07/30 09:29:28;;;;;;;5.00;3.05;;;;;;;28.56;46.46;100630.20;1728142;81;21162;-83
2022/07/30 09:32:08;;;;;;;3.47;3.15;;;;;;;28.57;46.45;100623.42;1728406;83;21112;-83
2022/07/30 09:34:38;;;;;;;3.45;2.42;;;;;;;28.55;46.47;100625.22;1728238;83;22062;-82
2022/07/30 09:37:13;;;;;;;3.22;2.55;;;;;;;28.56;46.48;100617.02;1728615;81;21116;-82
2022/07/30 09:39:40;;;;;;;3.12;2.80;;;;;;;28.55;46.43;100612.63;1728035;81;21673;-83
2022/07/30 09:42:21;;;;;;;3.37;2.60;;;;;;;28.54;46.44;100606.80;1728352;81;21283;-83
2022/07/30 09:44:47;;;;;;;4.08;3.02;;;;;;;28.55;46.43;100605.63;1728013;81;21037;-83
2022/07/30 09:47:29;;;;;;;3.50;2.95;;;;;;;28.56;46.41;100599.41;1728267;81;21108;-84
2022/07/30 09:50:11;;;;;;;3.98;3.02;;;;;;;28.56;46.41;100599.41;1727329;83;21132;-82
2022/07/30 09:52:40;;;;;;;3.25;2.70;;;;;;;28.56;46.41;100591.01;1727623;81;21136;-83
2022/07/30 09:55:07;;;;;;;3.12;2.75;;;;;;;28.55;46.37;100583.23;1727191;83;21142;-82
2022/07/30 09:57:34;;;;;;;3.40;3.00;;;;;;;28.56;46.40;100592.41;1727527;81;21113;-83
2022/07/30 10:00:18;;;;;;;3.35;3.05;;;;;;;28.57;46.40;100589.83;1727278;81;21064;-83
2022/07/30 10:02:46;;;;;;;4.60;2.67;;;;;;;28.56;46.37;100583.42;1725919;83;21132;-84
2022/07/30 10:05:14;;;;;;;4.17;2.83;;;;;;;28.57;46.36;100582.83;1727547;81;21069;-83
2022/07/30 10:07:58;;;;;;;3.55;2.87;;;;;;;28.56;46.36;100575.61;1727529;81;21053;-82
2022/07/30 10:10:27;;;;;;;3.17;2.87;;;;;;;28.57;46.36;100578.63;1727181;81;21021;-84
2022/07/30 10:12:58;;;;;;;3.73;3.20;;;;;;;28.56;46.36;100577.02;1697040;83;21164;-83
2022/07/30 10:15:27;;;;;;;3.00;2.52;;;;;;;28.56;46.37;100567.22;1727656;83;21770;-82
2022/07/30 10:17:54;;;;;;;3.43;2.80;;;;;;;28.57;46.35;100573.03;1726532;82;21060;-83
2022/07/30 10:20:21;;;;;;;5.62;2.65;;;;;;;28.56;46.35;100559.63;1719991;83;21732;-83
2022/07/30 10:22:47;;;;;;;3.17;2.50;;;;;;;28.57;46.31;100561.84;1720011;83;21050;-83
2022/07/30 10:25:20;;;;;;;3.90;2.72;;;;;;;28.56;46.29;100559.63;1719653;82;21045;-83
2022/07/30 10:27:47;;;;;;;2.98;2.65;;;;;;;28.57;46.28;100562.65;1719951;83;21152;-83
2022/07/30 10:30:20;;;;;;;2.90;2.60;;;;;;;28.57;46.24;100550.64;1719832;83;21061;-83
2022/07/30 10:32:46;;;;;;;3.50;2.58;;;;;;;28.57;46.26;100547.26;1719685;83;21054;-83
2022/07/30 10:35:13;;;;;;;2.80;2.60;;;;;;;28.58;46.25;100547.48;1719913;82;21097;-83
2022/07/30 10:37:48;;;;;;;2.98;2.67;;;;;;;28.59;46.25;100539.89;1719979;82;21041;-83
2022/07/30 10:40:26;;;;;;;3.00;2.50;;;;;;;28.58;46.23;100533.48;1719739;82;21076;-83
2022/07/30 10:43:35;;;;;;;3.00;2.70;;;;;;;28.58;46.21;100532.67;1720116;82;21018;-83
2022/07/30 10:46:57;;;;;;;3.00;2.70;;;;;;;28.58;46.21;100526.48;1719786;82;21520;-84
2022/07/30 10:49:24;;;;;;;3.02;2.72;;;;;;;28.58;46.21;100529.88;1719595;82;21502;-83
2022/07/30 10:51:53;;;;;;;3.37;2.92;;;;;;;28.57;46.15;100526.85;1701436;83;21041;-83
2022/07/30 10:54:43;;;;;;;3.00;2.70;;;;;;;28.57;46.16;100519.86;1719714;82;21074;-83
2022/07/30 10:57:20;;;;;;;4.20;2.90;;;;;;;28.57;46.15;100511.45;1720008;82;21065;-83
2022/07/30 10:59:56;;;;;;;2.87;2.62;;;;;;;28.57;46.15;100518.45;1720013;82;22114;-83
2022/07/30 11:02:23;;;;;;;3.37;2.92;;;;;;;28.57;46.16;100518.45;1719668;83;21113;-83
2022/07/30 11:04:49;;;;;;;3.30;3.00;;;;;;;28.58;46.17;100517.28;1720183;83;21049;-83
2022/07/30 11:07:26;;;;;;;3.50;2.42;;;;;;;28.58;46.20;100513.08;1701531;83;21570;-83
2022/07/30 11:09:55;;;;;;;3.52;2.80;;;;;;;28.59;46.19;100504.91;1719777;82;21010;-83
2022/07/30 11:12:47;;;;;;;3.12;2.83;;;;;;;28.58;46.17;100503.28;1720072;82;21113;-83
2022/07/30 11:15:14;;;;;;;3.27;2.60;;;;;;;28.58;46.16;100500.48;1719704;82;21501;-83
2022/07/30 11:18:07;;;;;;;2.75;2.47;;;;;;;28.58;46.14;100499.09;1701620;83;21021;-82
2022/07/30 11:20:34;;;;;;;3.45;2.87;;;;;;;28.59;46.16;100500.70;1727505;82;21018;-83
2022/07/30 11:23:27;;;;;;;3.47;2.72;;;;;;;28.59;46.14;100495.11;1727648;81;21595;-83
2022/07/30 11:25:54;;;;;;;3.08;2.77;;;;;;;28.59;46.17;100492.31;1727513;83;21197;-84
2022/07/30 11:28:44;;;;;;;3.37;3.08;;;;;;;28.60;46.17;100491.13;1727834;81;21045;-83
2022/07/30 11:31:36;;;;;;;3.65;2.70;;;;;;;28.59;46.21;100491.72;1723303;81;21001;-83
2022/07/30 11:34:24;;;;;;;3.20;2.90;;;;;;;28.60;46.22;100481.33;1727990;82;21037;-84